createdAt,value
2023-01-26T00:01:00.029Z,10.10
2023-01-26T00:03:48.349Z,12.90
2023-01-26T00:06:36.431Z,12.30
2023-01-26T00:09:24.376Z,11.20
2023-01-26T00:12:13.716Z,14.30
2023-01-26T00:15:01.649Z,15.63
2023-01-26T00:17:51.468Z,13.57
2023-01-26T00:20:39.411Z,15.67
2023-01-26T00:23:28.133Z,14.80
2023-01-26T00:26:18.234Z,13.30
2023-01-26T00:29:07.571Z,15.67
2023-01-26T00:31:55.565Z,15.13
2023-01-26T00:34:43.655Z,16.87
2023-01-26T00:37:31.776Z,15.43
2023-01-26T00:40:19.863Z,14.07
2023-01-26T00:43:08.296Z,13.10
2023-01-26T00:45:57.572Z,14.57
2023-01-26T00:48:45.582Z,14.67
2023-01-26T00:51:33.545Z,15.50
2023-01-26T00:54:21.507Z,15.70
2023-01-26T00:57:09.552Z,15.73
2023-01-26T00:59:57.524Z,13.77
2023-01-26T01:02:46.989Z,18.53
2023-01-26T01:05:35.622Z,17.73
2023-01-26T01:08:23.617Z,18.53
2023-01-26T01:11:12.927Z,20.83
2023-01-26T01:14:00.908Z,19.13
2023-01-26T01:16:49.050Z,17.67
2023-01-26T01:19:38.400Z,19.40
2023-01-26T01:22:26.450Z,21.13
2023-01-26T01:25:14.765Z,20.97
2023-01-26T01:28:02.779Z,21.00
2023-01-26T01:30:50.758Z,20.47
2023-01-26T01:33:39.236Z,24.27
2023-01-26T01:36:29.210Z,21.70
2023-01-26T01:39:20.176Z,21.40
2023-01-26T01:42:08.404Z,21.40
2023-01-26T01:45:40.472Z,23.07
2023-01-26T01:48:32.243Z,19.83
2023-01-26T01:51:24.663Z,22.03
2023-01-26T01:54:16.385Z,22.10
2023-01-26T01:57:15.768Z,21.30
2023-01-26T02:00:08.341Z,24.93
2023-01-26T02:03:11.946Z,26.53
2023-01-26T02:06:04.366Z,24.03
2023-01-26T02:08:54.948Z,22.80
2023-01-26T02:11:47.560Z,21.57
2023-01-26T02:14:35.572Z,24.60
2023-01-26T02:17:23.780Z,21.43
2023-01-26T02:20:21.230Z,24.03
2023-01-26T02:23:27.836Z,25.10
2023-01-26T02:26:20.434Z,24.63
2023-01-26T02:29:11.447Z,25.70
2023-01-26T02:31:59.461Z,24.77
2023-01-26T02:34:47.532Z,26.70
2023-01-26T02:37:35.608Z,26.37
2023-01-26T02:40:31.687Z,23.67
2023-01-26T02:43:20.309Z,26.20
2023-01-26T02:46:08.291Z,20.50
2023-01-26T02:49:13.740Z,23.57
2023-01-26T02:52:01.792Z,24.57
2023-01-26T02:55:07.283Z,27.20
2023-01-26T02:57:57.047Z,26.33
2023-01-26T03:00:46.415Z,25.77
2023-01-26T03:03:42.533Z,25.90
2023-01-26T03:06:30.523Z,26.97
2023-01-26T03:09:18.559Z,24.37
2023-01-26T03:12:07.107Z,23.17
2023-01-26T03:15:09.215Z,25.27
2023-01-26T03:18:21.896Z,23.17
2023-01-26T03:21:31.309Z,24.70
2023-01-26T03:24:36.595Z,23.87
2023-01-26T03:27:30.269Z,21.80
2023-01-26T03:30:20.170Z,22.63
2023-01-26T03:33:09.524Z,26.60
2023-01-26T03:35:57.450Z,24.63
2023-01-26T03:38:45.428Z,24.40
2023-01-26T03:41:50.921Z,25.03
2023-01-26T03:44:56.358Z,26.53
2023-01-26T03:48:02.364Z,26.70
2023-01-26T03:51:09.256Z,26.77
2023-01-26T03:54:14.731Z,25.57
2023-01-26T03:57:02.813Z,28.77
2023-01-26T03:59:50.782Z,30.00
2023-01-26T04:02:56.244Z,29.37
2023-01-26T04:06:15.729Z,25.37
2023-01-26T04:09:06.212Z,28.03
2023-01-26T04:11:54.350Z,28.43
2023-01-26T04:14:59.835Z,29.37
2023-01-26T04:18:05.309Z,26.43
2023-01-26T04:21:10.719Z,28.13
2023-01-26T04:23:59.086Z,30.00
2023-01-26T04:26:49.003Z,24.57
2023-01-26T04:29:37.001Z,33.40
2023-01-26T04:32:25.053Z,28.67
2023-01-26T04:35:13.329Z,30.47
2023-01-26T04:38:01.354Z,30.43
2023-01-26T04:40:54.345Z,25.97
2023-01-26T04:43:43.750Z,28.60
2023-01-26T04:46:33.176Z,30.30
2023-01-26T04:49:21.360Z,27.63
2023-01-26T04:52:09.509Z,28.33
2023-01-26T04:54:57.631Z,27.70
2023-01-26T04:57:45.594Z,25.67
2023-01-26T05:00:34.889Z,26.37
2023-01-26T05:03:23.229Z,29.63
2023-01-26T05:06:11.274Z,25.70
2023-01-26T05:08:59.877Z,32.13
2023-01-26T05:11:47.871Z,31.40
2023-01-26T05:14:35.891Z,29.53
2023-01-26T05:17:25.416Z,31.83
2023-01-26T05:20:13.945Z,28.73
2023-01-26T05:23:02.105Z,29.33
2023-01-26T05:25:50.102Z,31.63
2023-01-26T05:28:38.810Z,31.90
2023-01-26T05:31:26.762Z,30.90
2023-01-26T05:34:16.169Z,31.67
2023-01-26T05:37:04.113Z,31.67
2023-01-26T05:39:52.732Z,31.40
2023-01-26T05:42:40.780Z,32.57
2023-01-26T05:45:28.782Z,33.50
2023-01-26T05:48:16.729Z,35.93
2023-01-26T05:51:06.292Z,38.33
2023-01-26T05:53:54.323Z,33.00
2023-01-26T05:56:42.334Z,32.13
2023-01-26T05:59:30.425Z,36.43
2023-01-26T06:02:18.481Z,39.03
2023-01-26T06:05:07.632Z,35.50
2023-01-26T06:07:57.002Z,33.20
2023-01-26T06:10:45.030Z,37.90
2023-01-26T06:13:33.052Z,40.60
2023-01-26T06:16:21.132Z,38.03
2023-01-26T06:19:10.723Z,39.33
2023-01-26T06:21:58.719Z,39.27
2023-01-26T06:24:48.259Z,34.93
2023-01-26T06:27:36.369Z,39.23
2023-01-26T06:30:24.334Z,39.40
2023-01-26T06:33:12.392Z,40.87
2023-01-26T06:36:02.782Z,35.63
2023-01-26T06:38:54.473Z,37.77
2023-01-26T06:41:45.409Z,34.07
2023-01-26T06:44:33.384Z,41.63
2023-01-26T06:47:21.396Z,35.33
2023-01-26T06:50:10.944Z,41.57
2023-01-26T06:53:03.798Z,31.93
2023-01-26T06:55:52.085Z,33.10
2023-01-26T06:58:41.606Z,25.93
2023-01-26T07:01:33.733Z,30.27
2023-01-26T07:04:21.803Z,30.07
2023-01-26T07:07:09.768Z,30.77
2023-01-26T07:09:57.803Z,32.27
2023-01-26T07:12:46.991Z,31.00
2023-01-26T07:15:36.356Z,30.07
2023-01-26T07:18:24.286Z,30.27
2023-01-26T07:21:14.200Z,32.90
2023-01-26T07:24:02.245Z,27.20
2023-01-26T07:26:50.217Z,28.83
2023-01-26T07:29:38.207Z,28.37
2023-01-26T07:32:27.506Z,26.90
2023-01-26T07:35:15.635Z,29.40
2023-01-26T07:38:05.304Z,31.00
2023-01-26T07:40:53.574Z,25.60
2023-01-26T07:43:42.517Z,29.03
2023-01-26T07:46:30.515Z,26.27
2023-01-26T07:49:19.810Z,26.27
2023-01-26T07:52:08.661Z,28.43
2023-01-26T07:54:56.646Z,26.43
2023-01-26T07:57:44.666Z,30.93
2023-01-26T08:00:32.626Z,32.30
2023-01-26T08:03:20.590Z,28.10
2023-01-26T08:06:12.355Z,33.03
2023-01-26T08:09:01.750Z,33.23
2023-01-26T08:11:49.721Z,36.63
2023-01-26T08:14:46.466Z,33.67
2023-01-26T08:17:34.934Z,32.50
2023-01-26T08:20:23.388Z,31.97
2023-01-26T08:23:12.724Z,33.27
2023-01-26T08:26:02.631Z,37.97
2023-01-26T08:28:50.720Z,38.17
2023-01-26T08:31:39.382Z,32.40
2023-01-26T08:34:27.397Z,33.03
2023-01-26T08:37:15.377Z,36.70
2023-01-26T08:40:05.352Z,32.93
2023-01-26T08:42:54.221Z,38.27
2023-01-26T08:45:42.264Z,34.20
2023-01-26T08:48:31.303Z,34.00
2023-01-26T08:51:19.592Z,36.07
2023-01-26T08:54:08.296Z,36.43
2023-01-26T08:56:58.629Z,36.50
2023-01-26T08:59:49.629Z,33.87
2023-01-26T09:02:38.034Z,38.00
2023-01-26T09:05:26.136Z,34.67
2023-01-26T09:08:14.375Z,36.33
2023-01-26T09:11:02.790Z,35.80
2023-01-26T09:13:56.370Z,35.40
2023-01-26T09:16:44.470Z,33.80
2023-01-26T09:19:32.535Z,32.43
2023-01-26T09:22:20.515Z,34.10
2023-01-26T09:25:09.570Z,33.60
2023-01-26T09:27:58.058Z,32.20
2023-01-26T09:30:47.644Z,35.97
2023-01-26T09:33:35.863Z,31.93
2023-01-26T09:36:23.893Z,37.37
2023-01-26T09:39:11.963Z,32.73
2023-01-26T09:42:13.570Z,30.00
2023-01-26T09:45:16.561Z,32.40
2023-01-26T09:48:25.437Z,31.93
2023-01-26T09:51:19.692Z,33.30
2023-01-26T09:54:18.682Z,35.30
2023-01-26T09:57:15.663Z,35.60
2023-01-26T10:00:09.250Z,35.13
2023-01-26T10:03:11.851Z,30.80
2023-01-26T10:06:08.879Z,28.07
2023-01-26T10:08:58.617Z,30.63
2023-01-26T10:11:49.803Z,33.53
2023-01-26T10:14:41.081Z,35.07
2023-01-26T10:17:33.055Z,31.10
2023-01-26T10:20:28.823Z,33.83
2023-01-26T10:23:23.263Z,33.13
2023-01-26T10:26:14.145Z,37.77
2023-01-26T10:29:02.563Z,33.87
2023-01-26T10:31:50.526Z,31.37
2023-01-26T10:34:41.107Z,31.00
2023-01-26T10:37:30.761Z,30.50
2023-01-26T10:40:21.140Z,29.60
2023-01-26T10:43:19.104Z,32.37
2023-01-26T10:46:07.165Z,31.17
2023-01-26T10:48:56.719Z,30.23
2023-01-26T10:51:46.278Z,26.27
2023-01-26T10:54:36.841Z,30.03
2023-01-26T10:57:29.500Z,32.70
2023-01-26T11:00:25.501Z,33.43
2023-01-26T11:03:19.949Z,34.93
2023-01-26T11:06:09.395Z,31.97
2023-01-26T11:09:10.360Z,28.63
2023-01-26T11:12:04.626Z,32.90
2023-01-26T11:15:04.078Z,31.73
2023-01-26T11:17:59.370Z,30.13
2023-01-26T11:21:00.054Z,32.50
2023-01-26T11:23:59.556Z,30.30
2023-01-26T11:27:22.019Z,31.77
2023-01-26T11:30:38.265Z,27.20
2023-01-26T11:33:33.923Z,27.53
2023-01-26T11:36:34.504Z,30.13
2023-01-26T11:39:29.916Z,36.50
2023-01-26T11:42:30.306Z,33.30
2023-01-26T11:45:24.006Z,33.53
2023-01-26T11:48:25.451Z,30.07
2023-01-26T11:51:24.324Z,28.53
2023-01-26T11:54:36.617Z,28.10
2023-01-26T11:57:32.335Z,28.17
2023-01-26T12:00:30.479Z,27.90
2023-01-26T12:03:24.236Z,28.50
2023-01-26T12:06:17.943Z,24.03
2023-01-26T12:09:13.950Z,26.27
2023-01-26T12:12:06.188Z,25.57
2023-01-26T12:15:01.606Z,21.83
2023-01-26T12:17:59.756Z,25.47
2023-01-26T12:20:52.363Z,20.97
2023-01-26T12:23:49.263Z,26.73
2023-01-26T12:26:43.925Z,19.23
2023-01-26T12:29:43.979Z,22.67
2023-01-26T12:32:32.009Z,20.63
2023-01-26T12:35:31.629Z,19.37
2023-01-26T12:38:24.242Z,18.57
2023-01-26T12:41:19.162Z,18.27
2023-01-26T12:44:25.121Z,17.87
2023-01-26T12:47:18.945Z,21.27
2023-01-26T12:50:14.909Z,19.80
2023-01-26T12:53:11.778Z,17.30
2023-01-26T12:56:09.314Z,17.13
2023-01-26T12:58:59.456Z,16.93
2023-01-26T13:01:47.834Z,17.93
2023-01-26T13:04:35.964Z,17.33
2023-01-26T13:07:36.438Z,15.50
2023-01-26T13:10:43.563Z,17.53
2023-01-26T13:13:33.955Z,16.90
2023-01-26T13:16:35.331Z,13.13
2023-01-26T13:19:52.791Z,17.07
2023-01-26T13:22:42.509Z,19.97
2023-01-26T13:25:33.719Z,14.70
2023-01-26T13:28:29.948Z,15.20
2023-01-26T13:31:33.219Z,16.73
2023-01-26T13:34:26.894Z,16.33
2023-01-26T13:37:20.397Z,16.57
2023-01-26T13:40:20.336Z,14.07
2023-01-26T13:43:26.121Z,12.97
2023-01-26T13:46:19.687Z,10.83
2023-01-26T13:49:25.131Z,11.30
2023-01-26T13:52:19.304Z,10.97
2023-01-26T13:55:21.838Z,12.40
2023-01-26T13:58:15.382Z,11.60
2023-01-26T14:01:05.559Z,10.97
2023-01-26T14:04:04.582Z,10.53
2023-01-26T14:06:56.369Z,10.27
2023-01-26T14:09:47.956Z,8.43
2023-01-26T14:12:42.368Z,9.00
2023-01-26T14:15:33.791Z,11.63
2023-01-26T14:18:22.689Z,8.70
2023-01-26T14:21:19.062Z,8.33
2023-01-26T14:24:10.545Z,9.87
2023-01-26T14:26:58.783Z,10.60
2023-01-26T14:29:47.682Z,10.93
2023-01-26T14:32:37.173Z,10.20
2023-01-26T14:35:25.391Z,8.60
2023-01-26T14:38:17.723Z,11.60
2023-01-26T14:41:12.033Z,7.87
2023-01-26T14:44:01.888Z,9.13
2023-01-26T14:46:57.646Z,7.43
2023-01-26T14:49:51.386Z,8.37
2023-01-26T14:52:41.108Z,7.77
2023-01-26T14:55:31.171Z,7.60
2023-01-26T14:58:23.811Z,8.90
2023-01-26T15:01:21.899Z,7.90
2023-01-26T15:04:24.731Z,8.87
2023-01-26T15:07:35.948Z,7.43
2023-01-26T15:10:33.535Z,7.03
2023-01-26T15:13:24.797Z,8.30
2023-01-26T15:16:18.283Z,8.70
2023-01-26T15:19:08.018Z,9.33
2023-01-26T15:21:56.082Z,9.17
2023-01-26T15:24:47.262Z,7.27
2023-01-26T15:27:36.888Z,9.50
2023-01-26T15:30:27.905Z,10.27
2023-01-26T15:33:49.685Z,9.50
2023-01-26T15:36:50.441Z,9.73
2023-01-26T15:39:38.382Z,8.37
2023-01-26T15:42:30.969Z,7.63
2023-01-26T15:45:25.699Z,8.10
2023-01-26T15:48:14.422Z,8.90
2023-01-26T15:51:02.388Z,9.50
2023-01-26T15:53:50.402Z,9.07
2023-01-26T15:56:38.381Z,8.33
2023-01-26T15:59:27.679Z,8.60
2023-01-26T16:02:17.848Z,9.73
2023-01-26T16:05:06.503Z,9.90
2023-01-26T16:07:54.451Z,9.27
2023-01-26T16:10:42.977Z,8.80
2023-01-26T16:13:33.184Z,8.87
2023-01-26T16:16:27.586Z,7.63
2023-01-26T16:19:34.483Z,7.43
2023-01-26T16:22:22.863Z,7.23
2023-01-26T16:25:21.521Z,7.07
2023-01-26T16:28:09.583Z,7.27
2023-01-26T16:30:57.559Z,7.73
2023-01-26T16:33:47.246Z,6.20
2023-01-26T16:36:35.255Z,7.20
2023-01-26T16:39:23.353Z,6.60
2023-01-26T16:42:17.022Z,6.53
2023-01-26T16:45:06.148Z,6.77
2023-01-26T16:47:56.015Z,7.90
2023-01-26T16:50:46.169Z,6.07
2023-01-26T16:53:35.128Z,6.17
2023-01-26T16:56:24.534Z,6.67
2023-01-26T16:59:12.567Z,6.60
2023-01-26T17:02:00.914Z,7.50
2023-01-26T17:04:48.966Z,7.87
2023-01-26T17:07:38.335Z,6.77
2023-01-26T17:10:26.350Z,6.73
2023-01-26T17:13:15.798Z,7.23
2023-01-26T17:16:04.078Z,6.43
2023-01-26T17:18:52.985Z,5.97
2023-01-26T17:21:41.115Z,6.20
2023-01-26T17:24:30.657Z,6.03
2023-01-26T17:27:18.706Z,6.13
2023-01-26T17:30:07.572Z,6.43
2023-01-26T17:32:55.582Z,5.63
2023-01-26T17:35:43.637Z,5.17
2023-01-26T17:38:31.675Z,6.70
2023-01-26T17:41:21.108Z,4.80
2023-01-26T17:44:09.112Z,9.80
2023-01-26T17:46:57.064Z,5.10
2023-01-26T17:49:45.088Z,5.63
2023-01-26T17:52:35.409Z,6.03
2023-01-26T17:55:23.714Z,6.23
2023-01-26T17:58:13.227Z,7.57
2023-01-26T18:01:01.390Z,9.43
2023-01-26T18:03:49.979Z,7.10
2023-01-26T18:06:38.670Z,8.17
2023-01-26T18:09:26.996Z,9.07
2023-01-26T18:12:15.047Z,8.33
2023-01-26T18:15:07.123Z,12.00
2023-01-26T18:17:55.119Z,10.10
2023-01-26T18:20:43.061Z,10.53
2023-01-26T18:23:31.025Z,11.67
2023-01-26T18:26:21.084Z,8.87
2023-01-26T18:29:09.780Z,9.70
2023-01-26T18:31:59.215Z,8.10
2023-01-26T18:34:47.318Z,9.60
2023-01-26T18:37:35.385Z,12.13
2023-01-26T18:40:23.905Z,11.80
2023-01-26T18:43:12.253Z,8.13
2023-01-26T18:46:02.751Z,12.53
2023-01-26T18:48:53.467Z,11.23
2023-01-26T18:51:46.078Z,12.10
2023-01-26T18:54:34.208Z,9.03
2023-01-26T18:57:22.235Z,9.97
2023-01-26T19:00:11.488Z,10.23
2023-01-26T19:02:59.605Z,10.13
2023-01-26T19:05:48.896Z,10.67
2023-01-26T19:08:38.129Z,10.57
2023-01-26T19:11:27.453Z,9.17
2023-01-26T19:14:15.795Z,9.00
2023-01-26T19:17:03.858Z,12.03
2023-01-26T19:19:51.822Z,10.73
2023-01-26T19:22:41.228Z,9.20
2023-01-26T19:25:29.196Z,8.07
2023-01-26T19:28:17.474Z,8.67
2023-01-26T19:31:05.704Z,8.87
2023-01-26T19:33:54.874Z,10.00
2023-01-26T19:36:42.858Z,10.37
2023-01-26T19:39:32.165Z,9.70
2023-01-26T19:42:20.111Z,8.60
2023-01-26T19:45:08.980Z,9.50
2023-01-26T19:47:57.005Z,10.57
2023-01-26T19:50:44.947Z,12.10
2023-01-26T19:53:34.491Z,10.00
2023-01-26T19:56:26.011Z,10.87
2023-01-26T19:59:14.382Z,9.83
2023-01-26T20:02:02.383Z,7.60
2023-01-26T20:04:50.369Z,8.87
2023-01-26T20:07:38.719Z,10.63
2023-01-26T20:10:26.711Z,10.20
2023-01-26T20:13:16.297Z,9.77
2023-01-26T20:16:06.792Z,9.97
2023-01-26T20:18:54.900Z,10.20
2023-01-26T20:21:43.006Z,8.73
2023-01-26T20:24:31.052Z,8.47
2023-01-26T20:27:19.355Z,8.73
2023-01-26T20:30:10.576Z,11.13
2023-01-26T20:32:58.723Z,8.40
2023-01-26T20:35:46.629Z,11.10
2023-01-26T20:38:34.673Z,10.23
2023-01-26T20:41:24.580Z,7.70
2023-01-26T20:44:12.632Z,7.07
2023-01-26T20:47:01.918Z,7.77
2023-01-26T20:49:50.837Z,7.43
2023-01-26T20:52:41.222Z,7.20
2023-01-26T20:55:30.132Z,7.50
2023-01-26T20:58:18.118Z,10.17
2023-01-26T21:01:07.137Z,6.77
2023-01-26T21:03:56.519Z,7.63
2023-01-26T21:06:44.938Z,8.67
2023-01-26T21:09:33.196Z,6.63
2023-01-26T21:12:21.132Z,6.87
2023-01-26T21:15:09.882Z,6.77
2023-01-26T21:17:57.859Z,7.57
2023-01-26T21:20:57.165Z,9.33
2023-01-26T21:23:45.482Z,8.87
2023-01-26T21:26:34.678Z,9.70
2023-01-26T21:29:22.759Z,8.23
2023-01-26T21:32:10.952Z,8.13
2023-01-26T21:34:58.940Z,8.97
2023-01-26T21:37:48.203Z,11.02
2023-01-26T21:40:36.182Z,8.03
2023-01-26T21:43:24.190Z,9.30
2023-01-26T21:46:12.248Z,8.50
2023-01-26T21:49:00.571Z,6.80
2023-01-26T21:52:06.399Z,7.13
2023-01-26T21:54:58.929Z,5.07
2023-01-26T21:58:04.323Z,8.97
2023-01-26T22:00:52.386Z,8.73
2023-01-26T22:03:40.370Z,7.50
2023-01-26T22:06:29.197Z,5.53
2023-01-26T22:09:18.249Z,6.97
2023-01-26T22:12:08.136Z,6.07
2023-01-26T22:14:56.344Z,7.67
2023-01-26T22:17:44.642Z,7.03
2023-01-26T22:20:32.981Z,8.57
2023-01-26T22:23:20.935Z,6.73
2023-01-26T22:26:10.292Z,6.43
2023-01-26T22:29:00.109Z,5.83
2023-01-26T22:31:49.412Z,5.03
2023-01-26T22:34:37.375Z,6.00
2023-01-26T22:37:25.553Z,5.87
2023-01-26T22:40:15.467Z,6.93
2023-01-26T22:43:03.494Z,6.30
2023-01-26T22:45:52.857Z,6.00
2023-01-26T22:48:40.927Z,5.13
2023-01-26T22:51:31.197Z,5.33
2023-01-26T22:54:19.384Z,5.50
2023-01-26T22:57:11.240Z,4.50
2023-01-26T23:00:04.012Z,6.13
2023-01-26T23:02:56.328Z,6.60
2023-01-26T23:05:47.656Z,5.53
2023-01-26T23:08:38.970Z,5.93
2023-01-26T23:11:32.415Z,4.43
2023-01-26T23:14:20.532Z,4.97
2023-01-26T23:17:09.116Z,4.90
2023-01-26T23:19:58.445Z,5.17
2023-01-26T23:22:46.533Z,5.77
2023-01-26T23:25:52.465Z,5.33
2023-01-26T23:28:42.948Z,5.50
2023-01-26T23:31:31.916Z,3.67
2023-01-26T23:34:19.890Z,4.70
2023-01-26T23:37:09.196Z,6.40
2023-01-26T23:39:57.193Z,4.33
2023-01-26T23:43:03.407Z,4.17
2023-01-26T23:45:53.943Z,5.17
2023-01-26T23:48:41.999Z,4.37
2023-01-26T23:51:29.956Z,4.70
2023-01-26T23:54:19.311Z,4.07
2023-01-26T23:57:07.252Z,4.27
2023-01-26T23:59:55.316Z,5.27
